sensor_id;sensor_type;location;lat;lon;timestamp;pressure;altitude;pressure_sealevel;temperature;humidity
70468;BME280;57934;51.532;7.684;2023-08-30T00:00:55;99650.00;;;15.57;86.80
70468;BME280;57934;51.532;7.684;2023-08-30T00:03:21;99642.25;;;15.55;87.14
70468;BME280;57934;51.532;7.684;2023-08-30T00:05:47;99648.88;;;15.52;87.03
70468;BME280;57934;51.532;7.684;2023-08-30T00:08:13;99653.59;;;15.50;87.06
70468;BME280;57934;51.532;7.684;2023-08-30T00:10:47;99647.25;;;15.51;87.31
70468;BME280;57934;51.532;7.684;2023-08-30T00:13:13;99648.88;;;15.52;87.14
70468;BME280;57934;51.532;7.684;2023-08-30T00:15:39;99654.50;;;15.56;87.07
70468;BME280;57934;51.532;7.684;2023-08-30T00:18:05;99649.41;;;15.55;87.37
70468;BME280;57934;51.532;7.684;2023-08-30T00:20:31;99650.94;;;15.50;87.62
70468;BME280;57934;51.532;7.684;2023-08-30T00:22:57;99647.75;;;15.48;87.83
70468;BME280;57934;51.532;7.684;2023-08-30T00:25:23;99648.38;;;15.56;87.44
70468;BME280;57934;51.532;7.684;2023-08-30T00:27:49;99652.00;;;15.49;87.81
70468;BME280;57934;51.532;7.684;2023-08-30T00:30:15;99654.59;;;15.44;88.18
70468;BME280;57934;51.532;7.684;2023-08-30T00:32:41;99649.41;;;15.38;88.36
70468;BME280;57934;51.532;7.684;2023-08-30T00:35:07;99651.75;;;15.34;88.41
70468;BME280;57934;51.532;7.684;2023-08-30T00:37:33;99649.47;;;15.26;89.38
70468;BME280;57934;51.532;7.684;2023-08-30T00:39:59;99651.59;;;15.24;89.15
70468;BME280;57934;51.532;7.684;2023-08-30T00:46:15;99650.44;;;15.20;88.77
70468;BME280;57934;51.532;7.684;2023-08-30T00:48:42;99647.69;;;15.15;89.21
70468;BME280;57934;51.532;7.684;2023-08-30T00:51:09;99643.78;;;15.06;89.48
70468;BME280;57934;51.532;7.684;2023-08-30T00:53:34;99637.94;;;15.03;89.29
70468;BME280;57934;51.532;7.684;2023-08-30T00:56:01;99637.59;;;15.00;89.82
70468;BME280;57934;51.532;7.684;2023-08-30T00:58:27;99634.50;;;14.91;90.28
70468;BME280;57934;51.532;7.684;2023-08-30T01:00:53;99635.97;;;14.82;90.77
70468;BME280;57934;51.532;7.684;2023-08-30T01:03:20;99629.59;;;14.83;90.90
70468;BME280;57934;51.532;7.684;2023-08-30T01:05:48;99614.47;;;14.84;90.96
70468;BME280;57934;51.532;7.684;2023-08-30T01:08:14;99615.28;;;14.84;90.70
70468;BME280;57934;51.532;7.684;2023-08-30T01:13:25;99613.59;;;14.78;91.01
70468;BME280;57934;51.532;7.684;2023-08-30T01:15:54;99612.94;;;14.71;91.19
70468;BME280;57934;51.532;7.684;2023-08-30T01:18:26;99612.25;;;14.64;91.45
70468;BME280;57934;51.532;7.684;2023-08-30T01:20:54;99603.97;;;14.60;91.56
70468;BME280;57934;51.532;7.684;2023-08-30T01:23:36;99609.97;;;14.55;91.88
70468;BME280;57934;51.532;7.684;2023-08-30T01:26:11;99612.63;;;14.55;92.02
70468;BME280;57934;51.532;7.684;2023-08-30T01:28:39;99605.91;;;14.53;92.16
70468;BME280;57934;51.532;7.684;2023-08-30T01:31:09;99605.81;;;14.48;92.27
70468;BME280;57934;51.532;7.684;2023-08-30T01:33:36;99603.53;;;14.40;92.64
70468;BME280;57934;51.532;7.684;2023-08-30T01:36:04;99612.88;;;14.30;92.90
70468;BME280;57934;51.532;7.684;2023-08-30T01:38:33;99600.56;;;14.24;92.68
70468;BME280;57934;51.532;7.684;2023-08-30T01:41:01;99598.50;;;14.26;92.91
70468;BME280;57934;51.532;7.684;2023-08-30T01:43:30;99595.72;;;14.21;93.38
70468;BME280;57934;51.532;7.684;2023-08-30T01:45:58;99599.41;;;14.20;92.81
70468;BME280;57934;51.532;7.684;2023-08-30T01:48:27;99604.28;;;14.12;93.50
70468;BME280;57934;51.532;7.684;2023-08-30T01:50:55;99605.31;;;14.11;93.75
70468;BME280;57934;51.532;7.684;2023-08-30T01:53:25;99610.63;;;13.99;94.24
70468;BME280;57934;51.532;7.684;2023-08-30T01:55:51;99607.88;;;13.94;94.62
70468;BME280;57934;51.532;7.684;2023-08-30T01:58:18;99611.09;;;13.96;94.79
70468;BME280;57934;51.532;7.684;2023-08-30T02:00:44;99597.03;;;13.95;94.96
70468;BME280;57934;51.532;7.684;2023-08-30T02:03:12;99601.66;;;13.88;95.38
70468;BME280;57934;51.532;7.684;2023-08-30T02:05:58;99598.41;;;13.86;95.76
70468;BME280;57934;51.532;7.684;2023-08-30T02:08:35;99600.97;;;13.81;96.15
70468;BME280;57934;51.532;7.684;2023-08-30T02:11:04;99602.94;;;13.74;96.58
70468;BME280;57934;51.532;7.684;2023-08-30T02:13:33;99605.34;;;13.75;96.47
70468;BME280;57934;51.532;7.684;2023-08-30T02:16:01;99608.34;;;13.67;97.05
70468;BME280;57934;51.532;7.684;2023-08-30T02:18:28;99611.00;;;13.67;97.39
70468;BME280;57934;51.532;7.684;2023-08-30T02:20:57;99611.69;;;13.74;97.21
70468;BME280;57934;51.532;7.684;2023-08-30T02:23:23;99608.09;;;13.69;97.22
70468;BME280;57934;51.532;7.684;2023-08-30T02:25:50;99607.88;;;13.70;97.23
70468;BME280;57934;51.532;7.684;2023-08-30T02:28:16;99598.69;;;13.73;96.73
70468;BME280;57934;51.532;7.684;2023-08-30T02:30:42;99601.31;;;13.73;96.82
70468;BME280;57934;51.532;7.684;2023-08-30T02:33:08;99601.09;;;13.63;97.27
70468;BME280;57934;51.532;7.684;2023-08-30T02:35:34;99597.28;;;13.70;97.05
70468;BME280;57934;51.532;7.684;2023-08-30T02:38:00;99597.50;;;13.69;96.82
70468;BME280;57934;51.532;7.684;2023-08-30T02:40:30;99598.44;;;13.63;96.99
70468;BME280;57934;51.532;7.684;2023-08-30T02:42:57;99587.84;;;13.63;96.83
70468;BME280;57934;51.532;7.684;2023-08-30T02:45:23;99594.84;;;13.57;97.26
70468;BME280;57934;51.532;7.684;2023-08-30T02:47:50;99593.25;;;13.56;97.40
70468;BME280;57934;51.532;7.684;2023-08-30T02:50:16;99595.44;;;13.59;97.53
70468;BME280;57934;51.532;7.684;2023-08-30T02:52:42;99599.34;;;13.56;97.89
70468;BME280;57934;51.532;7.684;2023-08-30T02:55:09;99590.00;;;13.54;97.56
70468;BME280;57934;51.532;7.684;2023-08-30T02:57:34;99588.41;;;13.53;97.51
70468;BME280;57934;51.532;7.684;2023-08-30T03:00:00;99588.75;;;13.56;97.57
70468;BME280;57934;51.532;7.684;2023-08-30T03:02:26;99584.50;;;13.55;97.51
70468;BME280;57934;51.532;7.684;2023-08-30T03:04:52;99581.41;;;13.58;97.38
70468;BME280;57934;51.532;7.684;2023-08-30T03:07:21;99579.66;;;13.52;97.32
70468;BME280;57934;51.532;7.684;2023-08-30T03:09:52;99580.91;;;13.61;97.18
70468;BME280;57934;51.532;7.684;2023-08-30T03:12:19;99585.50;;;13.54;97.17
70468;BME280;57934;51.532;7.684;2023-08-30T03:14:46;99581.50;;;13.52;97.65
70468;BME280;57934;51.532;7.684;2023-08-30T03:17:12;99582.97;;;13.48;97.51
70468;BME280;57934;51.532;7.684;2023-08-30T03:19:38;99584.38;;;13.50;97.78
70468;BME280;57934;51.532;7.684;2023-08-30T03:22:04;99584.81;;;13.47;98.15
70468;BME280;57934;51.532;7.684;2023-08-30T03:24:30;99578.72;;;13.47;97.94
70468;BME280;57934;51.532;7.684;2023-08-30T03:26:56;99585.28;;;13.44;98.47
70468;BME280;57934;51.532;7.684;2023-08-30T03:29:22;99574.22;;;13.47;98.44
70468;BME280;57934;51.532;7.684;2023-08-30T03:31:48;99588.28;;;13.48;98.21
70468;BME280;57934;51.532;7.684;2023-08-30T03:34:14;99579.66;;;13.52;97.79
70468;BME280;57934;51.532;7.684;2023-08-30T03:36:40;99579.88;;;13.51;97.86
70468;BME280;57934;51.532;7.684;2023-08-30T03:39:08;99578.50;;;13.48;97.90
70468;BME280;57934;51.532;7.684;2023-08-30T03:41:34;99569.38;;;13.44;97.75
70468;BME280;57934;51.532;7.684;2023-08-30T03:44:01;99568.94;;;13.35;98.41
70468;BME280;57934;51.532;7.684;2023-08-30T03:46:27;99576.63;;;13.37;98.47
70468;BME280;57934;51.532;7.684;2023-08-30T03:48:53;99567.69;;;13.38;98.40
70468;BME280;57934;51.532;7.684;2023-08-30T03:51:19;99577.47;;;13.38;98.27
70468;BME280;57934;51.532;7.684;2023-08-30T03:53:48;99573.44;;;13.35;98.17
70468;BME280;57934;51.532;7.684;2023-08-30T03:56:14;99568.59;;;13.32;98.10
70468;BME280;57934;51.532;7.684;2023-08-30T03:58:40;99558.25;;;13.30;98.09
70468;BME280;57934;51.532;7.684;2023-08-30T04:01:06;99558.53;;;13.22;98.40
70468;BME280;57934;51.532;7.684;2023-08-30T04:03:32;99559.66;;;13.14;98.86
70468;BME280;57934;51.532;7.684;2023-08-30T04:05:58;99561.16;;;13.22;98.70
70468;BME280;57934;51.532;7.684;2023-08-30T04:08:24;99560.81;;;13.19;98.54
70468;BME280;57934;51.532;7.684;2023-08-30T04:10:52;99563.34;;;13.13;98.51
70468;BME280;57934;51.532;7.684;2023-08-30T04:13:18;99560.25;;;13.17;98.91
70468;BME280;57934;51.532;7.684;2023-08-30T04:15:44;99563.00;;;13.22;98.55
70468;BME280;57934;51.532;7.684;2023-08-30T04:18:10;99561.63;;;13.19;98.52
70468;BME280;57934;51.532;7.684;2023-08-30T04:20:36;99556.13;;;13.21;98.99
70468;BME280;57934;51.532;7.684;2023-08-30T04:23:08;99562.31;;;13.14;98.98
70468;BME280;57934;51.532;7.684;2023-08-30T04:25:34;99556.91;;;13.09;98.79
70468;BME280;57934;51.532;7.684;2023-08-30T04:28:00;99554.13;;;13.04;99.35
70468;BME280;57934;51.532;7.684;2023-08-30T04:30:26;99556.91;;;13.09;99.22
70468;BME280;57934;51.532;7.684;2023-08-30T04:32:52;99554.72;;;13.06;99.22
70468;BME280;57934;51.532;7.684;2023-08-30T04:35:18;99562.75;;;13.00;99.59
70468;BME280;57934;51.532;7.684;2023-08-30T04:37:44;99553.22;;;12.99;99.71
70468;BME280;57934;51.532;7.684;2023-08-30T04:40:10;99550.78;;;13.09;99.38
70468;BME280;57934;51.532;7.684;2023-08-30T04:42:37;99561.50;;;13.14;98.99
70468;BME280;57934;51.532;7.684;2023-08-30T04:45:03;99553.56;;;13.14;98.72
70468;BME280;57934;51.532;7.684;2023-08-30T04:47:31;99553.13;;;13.17;98.62
70468;BME280;57934;51.532;7.684;2023-08-30T04:49:59;99561.28;;;13.16;98.53
70468;BME280;57934;51.532;7.684;2023-08-30T04:52:25;99559.66;;;13.14;98.46
70468;BME280;57934;51.532;7.684;2023-08-30T04:54:54;99563.34;;;13.13;98.06
70468;BME280;57934;51.532;7.684;2023-08-30T04:57:22;99559.66;;;13.14;97.51
70468;BME280;57934;51.532;7.684;2023-08-30T04:59:48;99554.63;;;13.13;97.81
70468;BME280;57934;51.532;7.684;2023-08-30T05:02:14;99553.22;;;13.10;98.11
70468;BME280;57934;51.532;7.684;2023-08-30T05:04:51;99547.94;;;13.10;97.97
70468;BME280;57934;51.532;7.684;2023-08-30T05:07:17;99540.09;;;13.04;98.22
70468;BME280;57934;51.532;7.684;2023-08-30T05:09:43;99540.53;;;13.01;98.11
70468;BME280;57934;51.532;7.684;2023-08-30T05:12:09;99534.69;;;12.99;98.50
70468;BME280;57934;51.532;7.684;2023-08-30T05:14:35;99528.69;;;13.03;98.69
70468;BME280;57934;51.532;7.684;2023-08-30T05:17:02;99534.44;;;13.12;98.15
70468;BME280;57934;51.532;7.684;2023-08-30T05:19:28;99531.13;;;13.17;98.02
70468;BME280;57934;51.532;7.684;2023-08-30T05:21:54;99529.63;;;13.21;98.10
70468;BME280;57934;51.532;7.684;2023-08-30T05:24:21;99519.59;;;13.23;97.96
70468;BME280;57934;51.532;7.684;2023-08-30T05:26:47;99516.41;;;13.21;97.79
70468;BME280;57934;51.532;7.684;2023-08-30T05:29:14;99516.09;;;13.29;97.80
70468;BME280;57934;51.532;7.684;2023-08-30T05:31:41;99514.25;;;13.29;97.40
70468;BME280;57934;51.532;7.684;2023-08-30T05:34:22;99515.50;;;13.39;97.38
70468;BME280;57934;51.532;7.684;2023-08-30T05:37:08;99514.03;;;13.31;96.80
70468;BME280;57934;51.532;7.684;2023-08-30T05:39:52;99501.00;;;13.29;96.71
70468;BME280;57934;51.532;7.684;2023-08-30T05:42:18;99503.31;;;13.38;96.86
70468;BME280;57934;51.532;7.684;2023-08-30T05:44:44;99499.28;;;13.35;96.75
70468;BME280;57934;51.532;7.684;2023-08-30T05:47:10;99503.66;;;13.29;96.80
70468;BME280;57934;51.532;7.684;2023-08-30T05:49:40;99503.06;;;13.39;96.98
70468;BME280;57934;51.532;7.684;2023-08-30T05:52:07;99501.34;;;13.45;96.64
70468;BME280;57934;51.532;7.684;2023-08-30T05:54:33;99500.44;;;13.39;96.76
70468;BME280;57934;51.532;7.684;2023-08-30T05:56:59;99494.22;;;13.45;96.91
70468;BME280;57934;51.532;7.684;2023-08-30T05:59:26;99499.59;;;13.50;96.19
70468;BME280;57934;51.532;7.684;2023-08-30T06:01:53;99491.78;;;13.55;95.91
70468;BME280;57934;51.532;7.684;2023-08-30T06:04:19;99486.94;;;13.52;96.35
70468;BME280;57934;51.532;7.684;2023-08-30T06:06:46;99483.38;;;13.58;96.19
70468;BME280;57934;51.532;7.684;2023-08-30T06:09:12;99479.31;;;13.68;95.80
70468;BME280;57934;51.532;7.684;2023-08-30T06:11:41;99481.59;;;13.76;95.52
70468;BME280;57934;51.532;7.684;2023-08-30T06:14:07;99476.09;;;13.77;95.29
70468;BME280;57934;51.532;7.684;2023-08-30T06:16:33;99482.00;;;13.96;95.11
70468;BME280;57934;51.532;7.684;2023-08-30T06:18:59;99477.72;;;14.07;94.42
70468;BME280;57934;51.532;7.684;2023-08-30T06:21:25;99473.50;;;14.23;93.64
70468;BME280;57934;51.532;7.684;2023-08-30T06:23:51;99470.63;;;14.24;93.06
70468;BME280;57934;51.532;7.684;2023-08-30T06:26:18;99463.66;;;14.35;92.79
70468;BME280;57934;51.532;7.684;2023-08-30T06:28:44;99463.16;;;14.38;92.80
70468;BME280;57934;51.532;7.684;2023-08-30T06:31:10;99461.31;;;14.50;92.23
70468;BME280;57934;51.532;7.684;2023-08-30T06:33:36;99459.06;;;14.59;91.79
70468;BME280;57934;51.532;7.684;2023-08-30T06:36:05;99460.09;;;14.58;91.22
70468;BME280;57934;51.532;7.684;2023-08-30T06:38:31;99448.22;;;14.61;91.27
70468;BME280;57934;51.532;7.684;2023-08-30T06:40:58;99462.13;;;14.68;90.92
70468;BME280;57934;51.532;7.684;2023-08-30T06:43:24;99448.72;;;14.74;90.63
70468;BME280;57934;51.532;7.684;2023-08-30T06:45:51;99456.75;;;14.79;90.09
70468;BME280;57934;51.532;7.684;2023-08-30T06:48:18;99451.69;;;14.78;89.97
70468;BME280;57934;51.532;7.684;2023-08-30T06:50:44;99441.78;;;14.90;89.96
70468;BME280;57934;51.532;7.684;2023-08-30T06:53:10;99447.19;;;14.95;89.69
70468;BME280;57934;51.532;7.684;2023-08-30T06:55:36;99440.50;;;14.93;89.17
70468;BME280;57934;51.532;7.684;2023-08-30T06:58:03;99444.28;;;14.97;89.22
70468;BME280;57934;51.532;7.684;2023-08-30T07:00:29;99437.09;;;15.14;89.07
70468;BME280;57934;51.532;7.684;2023-08-30T07:02:55;99430.81;;;15.20;88.21
70468;BME280;57934;51.532;7.684;2023-08-30T07:05:22;99432.56;;;15.32;87.67
70468;BME280;57934;51.532;7.684;2023-08-30T07:07:49;99435.16;;;15.48;87.28
70468;BME280;57934;51.532;7.684;2023-08-30T07:10:15;99442.53;;;15.63;86.61
70468;BME280;57934;51.532;7.684;2023-08-30T07:12:41;99440.19;;;15.67;86.37
70468;BME280;57934;51.532;7.684;2023-08-30T07:15:07;99431.38;;;15.83;86.11
70468;BME280;57934;51.532;7.684;2023-08-30T07:17:33;99435.63;;;15.84;86.59
70468;BME280;57934;51.532;7.684;2023-08-30T07:19:59;99437.63;;;15.99;86.47
70468;BME280;57934;51.532;7.684;2023-08-30T07:22:25;99435.84;;;16.05;86.13
70468;BME280;57934;51.532;7.684;2023-08-30T07:24:51;99431.47;;;16.20;85.50
70468;BME280;57934;51.532;7.684;2023-08-30T07:27:17;99441.31;;;16.20;84.88
70468;BME280;57934;51.532;7.684;2023-08-30T07:29:43;99440.84;;;16.28;84.13
70468;BME280;57934;51.532;7.684;2023-08-30T07:32:09;99431.78;;;16.24;84.65
70468;BME280;57934;51.532;7.684;2023-08-30T07:34:35;99433.22;;;16.37;84.44
70468;BME280;57934;51.532;7.684;2023-08-30T07:37:01;99437.69;;;16.31;84.39
70468;BME280;57934;51.532;7.684;2023-08-30T07:39:28;99429.13;;;16.56;83.02
70468;BME280;57934;51.532;7.684;2023-08-30T07:41:54;99431.75;;;16.51;81.82
70468;BME280;57934;51.532;7.684;2023-08-30T07:44:19;99427.75;;;16.49;82.01
70468;BME280;57934;51.532;7.684;2023-08-30T07:46:46;99430.63;;;16.74;81.54
70468;BME280;57934;51.532;7.684;2023-08-30T07:49:12;99423.31;;;16.91;80.41
70468;BME280;57934;51.532;7.684;2023-08-30T07:51:38;99427.13;;;17.06;78.77
70468;BME280;57934;51.532;7.684;2023-08-30T07:54:04;99425.72;;;17.40;78.30
70468;BME280;57934;51.532;7.684;2023-08-30T07:56:30;99429.59;;;17.70;76.00
70468;BME280;57934;51.532;7.684;2023-08-30T07:58:56;99433.47;;;18.10;75.41
70468;BME280;57934;51.532;7.684;2023-08-30T08:01:22;99433.03;;;18.74;73.98
70468;BME280;57934;51.532;7.684;2023-08-30T08:03:48;99427.41;;;18.96;72.10
70468;BME280;57934;51.532;7.684;2023-08-30T08:06:14;99433.00;;;18.95;68.27
70468;BME280;57934;51.532;7.684;2023-08-30T08:08:40;99425.88;;;19.70;67.49
70468;BME280;57934;51.532;7.684;2023-08-30T08:11:06;99429.09;;;20.56;64.85
70468;BME280;57934;51.532;7.684;2023-08-30T08:13:32;99425.50;;;21.00;62.98
70468;BME280;57934;51.532;7.684;2023-08-30T08:15:58;99431.28;;;22.03;61.18
70468;BME280;57934;51.532;7.684;2023-08-30T08:18:24;99424.75;;;22.80;57.15
70468;BME280;57934;51.532;7.684;2023-08-30T08:20:50;99428.31;;;22.24;56.15
70468;BME280;57934;51.532;7.684;2023-08-30T08:23:16;99418.72;;;21.99;57.14
70468;BME280;57934;51.532;7.684;2023-08-30T08:25:42;99417.94;;;21.98;57.34
70468;BME280;57934;51.532;7.684;2023-08-30T08:28:08;99423.63;;;22.15;56.85
70468;BME280;57934;51.532;7.684;2023-08-30T08:30:36;99411.75;;;22.35;55.07
70468;BME280;57934;51.532;7.684;2023-08-30T08:33:02;99415.16;;;23.06;54.24
70468;BME280;57934;51.532;7.684;2023-08-30T08:35:27;99417.63;;;23.86;52.69
70468;BME280;57934;51.532;7.684;2023-08-30T08:37:53;99412.66;;;22.96;52.31
70468;BME280;57934;51.532;7.684;2023-08-30T08:40:19;99414.94;;;23.58;50.42
70468;BME280;57934;51.532;7.684;2023-08-30T08:42:47;99410.53;;;23.90;50.13
70468;BME280;57934;51.532;7.684;2023-08-30T08:45:17;99405.59;;;24.05;49.30
70468;BME280;57934;51.532;7.684;2023-08-30T08:47:45;99408.91;;;24.25;48.07
70468;BME280;57934;51.532;7.684;2023-08-30T08:50:11;99409.09;;;24.96;47.51
70468;BME280;57934;51.532;7.684;2023-08-30T08:52:37;99406.06;;;25.29;47.18
70468;BME280;57934;51.532;7.684;2023-08-30T08:55:03;99411.44;;;24.66;48.05
70468;BME280;57934;51.532;7.684;2023-08-30T08:57:30;99401.34;;;25.03;45.39
70468;BME280;57934;51.532;7.684;2023-08-30T08:59:59;99400.44;;;25.16;44.99
70468;BME280;57934;51.532;7.684;2023-08-30T09:02:25;99399.03;;;24.88;45.29
70468;BME280;57934;51.532;7.684;2023-08-30T09:04:52;99401.88;;;25.14;44.81
70468;BME280;57934;51.532;7.684;2023-08-30T09:07:19;99392.66;;;24.30;45.40
70468;BME280;57934;51.532;7.684;2023-08-30T09:09:46;99396.38;;;24.20;46.39
70468;BME280;57934;51.532;7.684;2023-08-30T09:12:12;99395.69;;;23.65;46.16
70468;BME280;57934;51.532;7.684;2023-08-30T09:14:38;99395.25;;;23.35;46.78
70468;BME280;57934;51.532;7.684;2023-08-30T09:17:04;99387.72;;;23.87;45.49
70468;BME280;57934;51.532;7.684;2023-08-30T09:19:30;99379.94;;;24.44;45.45
70468;BME280;57934;51.532;7.684;2023-08-30T09:21:58;99394.19;;;23.86;45.48
70468;BME280;57934;51.532;7.684;2023-08-30T09:24:25;99389.06;;;23.34;47.31
70468;BME280;57934;51.532;7.684;2023-08-30T09:26:54;99386.66;;;23.19;47.44
70468;BME280;57934;51.532;7.684;2023-08-30T09:29:21;99383.81;;;23.66;47.92
70468;BME280;57934;51.532;7.684;2023-08-30T09:31:52;99381.50;;;22.62;48.68
70468;BME280;57934;51.532;7.684;2023-08-30T09:34:25;99377.06;;;21.63;51.08
70468;BME280;57934;51.532;7.684;2023-08-30T09:36:51;99369.44;;;21.71;51.51
70468;BME280;57934;51.532;7.684;2023-08-30T09:39:18;99381.94;;;21.37;51.76
70468;BME280;57934;51.532;7.684;2023-08-30T09:41:49;99379.31;;;21.32;51.81
70468;BME280;57934;51.532;7.684;2023-08-30T09:44:21;99380.19;;;21.71;51.94
70468;BME280;57934;51.532;7.684;2023-08-30T09:46:54;99375.03;;;21.07;53.49
70468;BME280;57934;51.532;7.684;2023-08-30T09:49:22;99373.66;;;20.17;52.94
70468;BME280;57934;51.532;7.684;2023-08-30T09:51:50;99369.72;;;20.10;54.60
70468;BME280;57934;51.532;7.684;2023-08-30T09:54:19;99364.78;;;19.83;55.58
70468;BME280;57934;51.532;7.684;2023-08-30T09:56:46;99370.56;;;20.00;55.61
70468;BME280;57934;51.532;7.684;2023-08-30T09:59:13;99365.00;;;20.31;55.13
70468;BME280;57934;51.532;7.684;2023-08-30T10:01:43;99371.03;;;20.12;55.68
70468;BME280;57934;51.532;7.684;2023-08-30T10:04:10;99358.97;;;21.02;53.83
70468;BME280;57934;51.532;7.684;2023-08-30T10:06:39;99366.13;;;22.17;51.79
70468;BME280;57934;51.532;7.684;2023-08-30T10:09:07;99360.09;;;22.57;50.06
70468;BME280;57934;51.532;7.684;2023-08-30T10:11:35;99352.75;;;22.11;50.69
70468;BME280;57934;51.532;7.684;2023-08-30T10:14:05;99351.59;;;22.18;50.91
70468;BME280;57934;51.532;7.684;2023-08-30T10:16:42;99348.34;;;22.21;50.75
70468;BME280;57934;51.532;7.684;2023-08-30T10:19:11;99339.56;;;22.48;50.53
70468;BME280;57934;51.532;7.684;2023-08-30T10:21:40;99341.06;;;22.21;50.19
70468;BME280;57934;51.532;7.684;2023-08-30T10:24:08;99338.25;;;21.56;51.84
70468;BME280;57934;51.532;7.684;2023-08-30T10:26:37;99329.44;;;21.31;53.32
70468;BME280;57934;51.532;7.684;2023-08-30T10:29:05;99328.13;;;20.81;54.46
70468;BME280;57934;51.532;7.684;2023-08-30T10:31:32;99331.44;;;20.43;55.16
70468;BME280;57934;51.532;7.684;2023-08-30T10:33:58;99322.09;;;20.07;55.16
70468;BME280;57934;51.532;7.684;2023-08-30T10:36:26;99322.13;;;20.01;56.26
70468;BME280;57934;51.532;7.684;2023-08-30T10:38:55;99323.56;;;20.23;56.57
70468;BME280;57934;51.532;7.684;2023-08-30T10:41:25;99320.97;;;20.13;56.93
70468;BME280;57934;51.532;7.684;2023-08-30T10:43:52;99321.56;;;20.05;57.33
70468;BME280;57934;51.532;7.684;2023-08-30T10:46:34;99324.41;;;19.84;57.79
70468;BME280;57934;51.532;7.684;2023-08-30T10:49:11;99328.19;;;19.78;58.63
70468;BME280;57934;51.532;7.684;2023-08-30T10:51:41;99329.94;;;19.93;58.77
70468;BME280;57934;51.532;7.684;2023-08-30T10:54:14;99330.72;;;19.93;58.94
70468;BME280;57934;51.532;7.684;2023-08-30T10:59:17;99325.63;;;19.52;58.84
70468;BME280;57934;51.532;7.684;2023-08-30T11:01:44;99339.38;;;19.30;62.66
70468;BME280;57934;51.532;7.684;2023-08-30T11:04:12;99343.78;;;18.80;66.25
70468;BME280;57934;51.532;7.684;2023-08-30T11:06:39;99350.50;;;18.17;70.76
70468;BME280;57934;51.532;7.684;2023-08-30T11:09:06;99342.41;;;17.71;73.34
70468;BME280;57934;51.532;7.684;2023-08-30T11:11:34;99344.75;;;17.52;77.39
70468;BME280;57934;51.532;7.684;2023-08-30T11:14:09;99343.56;;;17.17;80.38
70468;BME280;57934;51.532;7.684;2023-08-30T11:16:36;99348.31;;;17.15;83.07
70468;BME280;57934;51.532;7.684;2023-08-30T11:19:03;99352.28;;;17.07;84.92
70468;BME280;57934;51.532;7.684;2023-08-30T11:21:34;99358.41;;;17.03;86.42
70468;BME280;57934;51.532;7.684;2023-08-30T11:24:03;99348.50;;;16.93;86.98
70468;BME280;57934;51.532;7.684;2023-08-30T11:26:29;99352.72;;;16.89;87.18
70468;BME280;57934;51.532;7.684;2023-08-30T11:28:55;99355.41;;;16.94;87.35
70468;BME280;57934;51.532;7.684;2023-08-30T11:31:23;99355.69;;;16.98;88.93
70468;BME280;57934;51.532;7.684;2023-08-30T11:33:56;99354.03;;;16.81;88.66
70468;BME280;57934;51.532;7.684;2023-08-30T11:36:25;99357.09;;;16.68;92.32
70468;BME280;57934;51.532;7.684;2023-08-30T11:38:52;99360.28;;;16.65;93.93
70468;BME280;57934;51.532;7.684;2023-08-30T11:41:20;99358.69;;;16.69;92.41
70468;BME280;57934;51.532;7.684;2023-08-30T11:43:50;99356.38;;;16.45;92.37
70468;BME280;57934;51.532;7.684;2023-08-30T11:46:19;99351.25;;;16.34;94.14
70468;BME280;57934;51.532;7.684;2023-08-30T11:48:47;99354.38;;;16.58;94.60
70468;BME280;57934;51.532;7.684;2023-08-30T11:51:14;99352.72;;;16.52;95.17
70468;BME280;57934;51.532;7.684;2023-08-30T11:53:40;99358.34;;;16.55;96.68
70468;BME280;57934;51.532;7.684;2023-08-30T11:56:06;99358.69;;;16.69;97.48
70468;BME280;57934;51.532;7.684;2023-08-30T11:58:36;99356.16;;;16.84;98.04
70468;BME280;57934;51.532;7.684;2023-08-30T12:01:03;99350.19;;;16.72;96.13
70468;BME280;57934;51.532;7.684;2023-08-30T12:03:31;99350.75;;;16.37;96.06
70468;BME280;57934;51.532;7.684;2023-08-30T12:05:57;99349.72;;;16.11;97.43
70468;BME280;57934;51.532;7.684;2023-08-30T12:08:26;99350.38;;;16.23;99.22
70468;BME280;57934;51.532;7.684;2023-08-30T12:10:53;99356.84;;;16.32;99.25
70468;BME280;57934;51.532;7.684;2023-08-30T12:13:26;99354.91;;;16.22;100.00
70468;BME280;57934;51.532;7.684;2023-08-30T12:15:54;99352.72;;;16.19;100.00
70468;BME280;57934;51.532;7.684;2023-08-30T12:18:28;99339.97;;;16.21;100.00
70468;BME280;57934;51.532;7.684;2023-08-30T12:20:58;99348.84;;;16.32;100.00
70468;BME280;57934;51.532;7.684;2023-08-30T12:23:32;99344.94;;;16.08;100.00
70468;BME280;57934;51.532;7.684;2023-08-30T12:26:02;99351.94;;;16.19;100.00
70468;BME280;57934;51.532;7.684;2023-08-30T12:28:31;99344.94;;;16.08;100.00
70468;BME280;57934;51.532;7.684;2023-08-30T12:30:57;99344.88;;;16.03;100.00
70468;BME280;57934;51.532;7.684;2023-08-30T12:33:23;99343.06;;;16.08;100.00
70468;BME280;57934;51.532;7.684;2023-08-30T12:35:54;99345.88;;;15.96;100.00
70468;BME280;57934;51.532;7.684;2023-08-30T12:38:21;99348.78;;;15.95;100.00
70468;BME280;57934;51.532;7.684;2023-08-30T12:40:49;99354.03;;;15.90;100.00
70468;BME280;57934;51.532;7.684;2023-08-30T12:43:16;99346.91;;;15.90;100.00
70468;BME280;57934;51.532;7.684;2023-08-30T12:45:44;99339.09;;;15.62;100.00
70468;BME280;57934;51.532;7.684;2023-08-30T12:48:11;99349.06;;;15.49;100.00
70468;BME280;57934;51.532;7.684;2023-08-30T12:50:38;99341.47;;;15.36;100.00
70468;BME280;57934;51.532;7.684;2023-08-30T12:53:05;99353.78;;;15.20;100.00
70468;BME280;57934;51.532;7.684;2023-08-30T12:55:32;99349.41;;;15.31;100.00
70468;BME280;57934;51.532;7.684;2023-08-30T12:57:58;99342.72;;;15.28;100.00
70468;BME280;57934;51.532;7.684;2023-08-30T13:00:24;99345.88;;;15.03;100.00
70468;BME280;57934;51.532;7.684;2023-08-30T13:02:50;99350.50;;;15.13;100.00
70468;BME280;57934;51.532;7.684;2023-08-30T13:05:16;99342.28;;;14.93;100.00
70468;BME280;57934;51.532;7.684;2023-08-30T13:07:43;99339.56;;;15.10;100.00
70468;BME280;57934;51.532;7.684;2023-08-30T13:10:09;99341.53;;;14.97;100.00